Time;durP1;ratioP1;P1;durP2;ratioP2;P2;SDS_P1;SDS_P2;PMS_P1;PMS_P2;Temp;Humidity;BMP_temperature;BMP_pressure;BME280_temperature;BME280_humidity;BME280_pressure;Samples;Min_cycle;Max_cycle;Signal;HPM_P1;HPM_P2
2022/09/15 00:01:11;;;;;;;5.35;2.50;;;;;;;16.67;57.87;94679.00;5126612;27;20038;-72
2022/09/15 00:03:37;;;;;;;5.15;2.20;;;;;;;16.62;58.76;94674.25;5108522;28;20039;-72
2022/09/15 00:06:03;;;;;;;6.30;2.30;;;;;;;16.54;58.48;94674.25;5130236;27;20020;-72
2022/09/15 00:08:28;;;;;;;3.35;2.30;;;;;;;16.47;58.72;94673.31;5092723;28;20019;-72
2022/09/15 00:11:04;;;;;;;3.45;2.40;;;;;;;16.39;59.51;94676.75;5109157;28;20042;-72
2022/09/15 00:13:30;;;;;;;2.70;2.00;;;;;;;16.41;59.43;94677.41;5107354;28;20043;-72
2022/09/15 00:15:55;;;;;;;3.67;2.30;;;;;;;16.39;58.31;94663.66;5128536;27;20567;-72
2022/09/15 00:18:21;;;;;;;4.13;2.35;;;;;;;16.31;59.13;94671.53;5109634;28;20051;-72
2022/09/15 00:20:46;;;;;;;3.38;2.35;;;;;;;16.30;59.50;94675.94;5118046;27;20084;-72
2022/09/15 00:23:13;;;;;;;2.70;2.17;;;;;;;16.20;59.57;94669.25;5113899;27;20050;-72
2022/09/15 00:25:43;;;;;;;6.70;2.38;;;;;;;16.22;60.12;94681.19;5095403;27;20410;-72
2022/09/15 00:28:08;;;;;;;4.17;2.57;;;;;;;16.19;60.12;94680.72;5130854;27;20103;-72
2022/09/15 00:30:34;;;;;;;3.30;2.30;;;;;;;16.12;60.15;94687.59;5113212;27;20046;-72
2022/09/15 00:32:59;;;;;;;5.22;2.20;;;;;;;16.04;60.38;94697.06;5130258;27;20023;-72
2022/09/15 00:35:24;;;;;;;3.70;2.47;;;;;;;15.95;60.67;94682.34;5108490;28;20028;-72
2022/09/15 00:37:50;;;;;;;3.78;2.35;;;;;;;15.82;60.73;94684.59;5109068;28;20474;-71
2022/09/15 00:40:15;;;;;;;4.50;2.30;;;;;;;15.78;61.18;94683.31;5128656;27;20394;-72
2022/09/15 00:42:41;;;;;;;5.20;2.60;;;;;;;15.79;61.71;94684.94;5116676;27;20409;-72
2022/09/15 00:45:12;;;;;;;4.10;2.53;;;;;;;15.78;62.66;94683.31;5134149;27;20038;-72
2022/09/15 00:47:38;;;;;;;5.05;2.70;;;;;;;15.71;62.58;94671.81;5117531;27;20034;-73
2022/09/15 00:50:10;;;;;;;4.70;2.50;;;;;;;15.71;62.46;94677.06;5134011;27;20397;-72
2022/09/15 00:52:51;;;;;;;3.35;2.60;;;;;;;15.73;62.89;94677.72;5117102;27;20066;-72
2022/09/15 00:55:21;;;;;;;5.40;2.63;;;;;;;15.74;62.58;94676.75;5117297;27;20031;-72
2022/09/15 00:57:52;;;;;;;6.57;2.93;;;;;;;15.81;61.97;94693.47;5134303;27;20080;-72
2022/09/15 01:00:20;;;;;;;4.03;2.85;;;;;;;15.77;62.29;94700.00;5117198;27;20031;-72
2022/09/15 01:02:46;;;;;;;5.28;2.63;;;;;;;15.81;61.71;94688.22;5116794;27;20028;-72
2022/09/15 01:05:13;;;;;;;4.60;2.40;;;;;;;15.71;61.61;94687.53;5099918;27;20031;-72
2022/09/15 01:08:05;;;;;;;4.43;2.40;;;;;;;15.61;62.34;94683.25;5132870;27;20035;-72
2022/09/15 01:10:37;;;;;;;4.90;2.70;;;;;;;15.55;61.98;94668.19;5125786;27;20565;-73
2022/09/15 01:13:08;;;;;;;5.03;2.72;;;;;;;15.58;61.57;94674.91;5116682;27;20038;-72
2022/09/15 01:15:51;;;;;;;;;;;;;;;15.60;61.80;94676.38;5134637;27;20184;-72
2022/09/15 01:18:18;;;;;;;4.78;2.47;;;;;;;15.53;60.87;94688.47;5134819;27;19915;-72
2022/09/15 01:21:12;;;;;;;5.45;2.33;;;;;;;15.60;59.86;94680.78;5116453;27;20034;-72
2022/09/15 01:23:50;;;;;;;4.10;2.30;;;;;;;15.65;59.82;94689.78;5133525;27;20087;-72
2022/09/15 01:26:46;;;;;;;4.70;2.50;;;;;;;15.69;61.08;94679.03;5116298;27;20041;-72
2022/09/15 01:29:30;;;;;;;4.50;2.75;;;;;;;15.71;60.92;94672.66;5134540;27;20507;-72
2022/09/15 01:35:01;;;;;;;5.15;2.70;;;;;;;15.77;58.91;94673.81;5133713;27;20061;-72
2022/09/15 01:37:29;;;;;;;5.13;2.67;;;;;;;15.74;60.03;94668.88;5116808;27;20543;-72
2022/09/15 01:39:54;;;;;;;3.97;2.92;;;;;;;15.80;59.72;94676.13;5133400;27;20109;-72
2022/09/15 01:42:20;;;;;;;6.63;2.40;;;;;;;15.89;58.27;94672.50;5098877;27;20031;-72
2022/09/15 01:44:57;;;;;;;7.78;2.28;;;;;;;15.91;57.80;94664.47;5133357;27;20076;-72
2022/09/15 01:47:23;;;;;;;4.18;2.40;;;;;;;15.99;57.54;94670.56;5116096;27;20441;-72
2022/09/15 01:50:13;;;;;;;4.20;2.70;;;;;;;16.05;58.47;94672.53;5116178;27;20034;-72
2022/09/15 01:52:40;;;;;;;4.57;2.50;;;;;;;16.06;57.35;94673.34;5125286;27;20359;-72
2022/09/15 01:55:11;;;;;;;4.00;2.25;;;;;;;16.12;57.30;94679.72;5115916;27;20420;-72
2022/09/15 01:57:36;;;;;;;4.80;2.50;;;;;;;16.13;57.38;94671.72;5116084;27;20039;-72
2022/09/15 02:00:02;;;;;;;3.50;2.60;;;;;;;16.10;58.27;94672.00;5133102;27;20035;-72
2022/09/15 02:02:41;;;;;;;5.07;2.80;;;;;;;15.99;59.17;94667.94;5115667;27;20091;-72
2022/09/15 02:05:19;;;;;;;3.67;2.40;;;;;;;16.05;57.31;94674.31;5116791;27;20113;-72
2022/09/15 02:08:04;;;;;;;4.75;2.40;;;;;;;16.10;57.84;94666.78;5130572;27;20456;-72
2022/09/15 02:10:33;;;;;;;3.08;2.40;;;;;;;15.99;59.24;94667.94;5095365;28;20035;-72
2022/09/15 02:13:05;;;;;;;3.20;2.15;;;;;;;15.84;59.27;94667.75;5111859;28;20038;-72
2022/09/15 02:15:35;;;;;;;5.07;2.75;;;;;;;15.80;58.54;94653.34;5112064;28;20046;-72
2022/09/15 02:18:01;;;;;;;7.03;2.60;;;;;;;15.89;57.70;94654.19;5095311;28;20063;-72
2022/09/15 02:20:56;;;;;;;4.78;2.30;;;;;;;15.82;57.67;94646.16;5095010;28;20310;-72
2022/09/15 02:23:31;;;;;;;4.20;2.30;;;;;;;15.86;57.71;94657.13;5093510;28;20043;-72
2022/09/15 02:26:03;;;;;;;3.63;2.50;;;;;;;15.89;58.07;94662.03;5078284;28;20031;-72
2022/09/15 02:28:30;;;;;;;4.85;2.40;;;;;;;15.86;58.53;94644.03;5095524;28;20035;-73
2022/09/15 02:30:56;;;;;;;2.80;2.10;;;;;;;15.96;58.01;94647.28;5094873;28;20090;-73
2022/09/15 02:33:23;;;;;;;6.90;2.30;;;;;;;15.99;57.46;94644.38;5094526;28;20099;-72
2022/09/15 02:35:50;;;;;;;4.07;2.70;;;;;;;15.94;58.28;94649.28;5094741;28;20046;-72
2022/09/15 02:38:16;;;;;;;3.95;2.40;;;;;;;15.93;58.00;94646.81;5094692;28;20277;-72
2022/09/15 02:40:42;;;;;;;3.03;2.45;;;;;;;16.01;57.71;94641.56;5111581;28;20414;-72
2022/09/15 02:43:13;;;;;;;4.00;2.33;;;;;;;16.06;57.44;94634.84;5101143;28;20459;-72
2022/09/15 02:45:38;;;;;;;4.22;2.53;;;;;;;16.10;57.48;94645.81;5111412;28;20111;-72
2022/09/15 02:48:04;;;;;;;4.15;2.20;;;;;;;16.06;57.12;94639.28;5111413;28;20027;-72
2022/09/15 02:50:29;;;;;;;4.40;2.40;;;;;;;16.10;57.62;94643.19;5112501;28;20063;-72
2022/09/15 02:52:55;;;;;;;11.65;2.10;;;;;;;16.18;57.23;94643.19;5110971;28;20027;-72
2022/09/15 02:55:21;;;;;;;3.45;2.08;;;;;;;16.09;57.43;94647.63;5111203;28;20023;-72
2022/09/15 02:57:46;;;;;;;3.08;2.20;;;;;;;16.07;57.83;94656.63;5111148;28;20438;-73
2022/09/15 03:00:13;;;;;;;6.10;2.92;;;;;;;16.00;59.03;94664.31;5111290;28;20055;-72
2022/09/15 03:02:49;;;;;;;3.25;2.40;;;;;;;15.91;59.61;94652.22;5107902;28;20119;-72
2022/09/15 03:05:15;;;;;;;6.93;2.47;;;;;;;15.92;59.68;94663.50;5111260;28;20032;-72
2022/09/15 03:07:40;;;;;;;3.63;2.35;;;;;;;15.84;59.98;94653.84;5118159;27;20403;-72
2022/09/15 03:10:07;;;;;;;5.88;2.50;;;;;;;15.78;59.43;94641.41;5152403;27;20031;-72
2022/09/15 03:12:39;;;;;;;4.82;2.58;;;;;;;15.82;59.24;94651.41;5152006;27;20062;-72
2022/09/15 03:15:08;;;;;;;4.90;2.80;;;;;;;15.73;58.49;94654.16;5135078;27;20485;-72
2022/09/15 03:17:37;;;;;;;4.30;2.55;;;;;;;15.73;58.02;94657.59;5147154;27;20055;-72
2022/09/15 03:20:04;;;;;;;4.50;2.78;;;;;;;15.69;59.53;94665.97;5127614;27;20038;-72
2022/09/15 03:22:29;;;;;;;7.25;2.58;;;;;;;15.68;58.74;94667.72;5114133;27;20412;-72
2022/09/15 03:24:55;;;;;;;4.28;2.72;;;;;;;15.71;57.93;94666.59;5131419;27;20031;-72
2022/09/15 03:27:20;;;;;;;4.53;2.58;;;;;;;15.68;59.19;94678.19;5119830;27;20031;-72
2022/09/15 03:29:45;;;;;;;5.40;2.70;;;;;;;15.63;59.16;94678.69;5112548;27;20024;-72
2022/09/15 03:32:11;;;;;;;4.82;2.50;;;;;;;15.62;58.76;94677.03;5110739;27;20031;-72
2022/09/15 03:34:36;;;;;;;5.50;2.70;;;;;;;15.55;58.95;94685.69;5093543;28;20533;-72
2022/09/15 03:37:02;;;;;;;4.68;2.50;;;;;;;15.53;58.50;94677.19;5110478;28;20035;-72
2022/09/15 03:39:27;;;;;;;3.60;2.35;;;;;;;15.49;58.39;94689.78;5118976;27;20042;-72
2022/09/15 03:41:53;;;;;;;2.90;2.40;;;;;;;15.50;58.78;94687.97;5130594;27;20027;-72
2022/09/15 03:44:18;;;;;;;4.80;2.70;;;;;;;15.51;59.30;94693.03;5096621;27;20083;-72
2022/09/15 03:46:44;;;;;;;4.30;2.40;;;;;;;15.55;58.21;94683.09;5117728;27;20133;-72
2022/09/15 03:49:10;;;;;;;5.35;2.40;;;;;;;15.55;58.31;94683.09;5099846;27;20027;-72
2022/09/15 03:51:35;;;;;;;8.63;2.70;;;;;;;15.54;58.87;94682.25;5130307;27;20035;-72
2022/09/15 03:54:00;;;;;;;3.55;2.50;;;;;;;15.54;59.04;94687.47;5130543;27;20481;-72
2022/09/15 03:56:30;;;;;;;4.50;2.50;;;;;;;15.52;59.11;94678.97;5119995;27;20043;-72
2022/09/15 03:58:56;;;;;;;3.72;2.50;;;;;;;15.50;59.57;94664.41;5110100;28;20035;-72
2022/09/15 04:01:22;;;;;;;4.05;2.80;;;;;;;15.41;60.40;94679.28;5093167;28;20047;-72
2022/09/15 04:03:47;;;;;;;4.45;2.83;;;;;;;15.34;60.05;94673.03;5090331;28;20035;-72
2022/09/15 04:06:13;;;;;;;4.55;2.47;;;;;;;15.39;58.73;94682.03;5130625;27;20035;-72
2022/09/15 04:08:39;;;;;;;5.43;2.33;;;;;;;15.42;58.28;94668.63;5128680;28;20047;-72
2022/09/15 04:11:06;;;;;;;5.35;2.90;;;;;;;15.42;58.09;94676.50;5113487;28;20118;-72
2022/09/15 04:13:32;;;;;;;3.45;2.53;;;;;;;15.47;57.85;94688.28;5130485;28;20123;-73
2022/09/15 04:16:02;;;;;;;6.20;2.38;;;;;;;15.49;58.00;94674.06;5122759;28;20034;-72
2022/09/15 04:18:28;;;;;;;6.18;3.00;;;;;;;15.38;59.70;94682.22;5099130;28;20145;-72
2022/09/15 04:20:57;;;;;;;3.88;2.70;;;;;;;15.35;60.55;94678.13;5116967;28;20393;-72
2022/09/15 04:23:22;;;;;;;4.68;2.50;;;;;;;15.36;59.88;94674.53;5130381;28;20038;-72
2022/09/15 04:25:55;;;;;;;4.82;2.25;;;;;;;15.43;59.36;94674.69;5131694;27;20059;-72
2022/09/15 04:28:21;;;;;;;6.30;2.42;;;;;;;15.50;58.72;94670.47;5094314;28;20537;-72
2022/09/15 04:30:47;;;;;;;3.95;2.47;;;;;;;15.50;58.91;94661.78;5113045;28;20038;-73
2022/09/15 04:33:12;;;;;;;4.13;2.35;;;;;;;15.52;58.99;94652.00;5114386;28;20031;-72
2022/09/15 04:35:38;;;;;;;4.75;2.90;;;;;;;15.57;59.15;94668.84;5130305;27;20027;-72
2022/09/15 04:38:03;;;;;;;3.28;2.45;;;;;;;15.61;58.95;94654.44;5108952;28;20023;-72
2022/09/15 04:40:29;;;;;;;3.90;2.38;;;;;;;15.69;58.67;94664.16;5093645;28;20126;-72
2022/09/15 04:42:54;;;;;;;5.35;2.50;;;;;;;15.73;58.38;94665.44;5111100;28;20051;-72
2022/09/15 04:45:20;;;;;;;4.28;2.45;;;;;;;15.75;58.11;94657.44;5110966;28;20413;-72
2022/09/15 04:47:47;;;;;;;3.88;2.78;;;;;;;15.83;58.07;94670.56;5111512;28;20019;-72
2022/09/15 04:50:13;;;;;;;6.40;2.85;;;;;;;15.87;58.29;94669.22;5119342;28;20036;-73
2022/09/15 04:52:38;;;;;;;4.28;2.80;;;;;;;15.96;58.34;94676.09;5111737;28;20462;-72
2022/09/15 04:55:04;;;;;;;5.68;2.35;;;;;;;16.00;58.54;94666.94;5128027;27;20400;-72
2022/09/15 04:57:29;;;;;;;4.10;2.70;;;;;;;16.11;58.18;94670.22;5119686;28;20034;-72
2022/09/15 04:59:55;;;;;;;6.28;2.90;;;;;;;16.16;57.62;94662.66;5095145;27;20042;-72
2022/09/15 05:02:20;;;;;;;3.90;2.92;;;;;;;16.29;57.18;94670.84;5122446;28;20080;-72
2022/09/15 05:04:47;;;;;;;4.47;2.70;;;;;;;16.36;58.18;94690.19;5129341;27;20061;-72
2022/09/15 05:07:13;;;;;;;5.50;3.33;;;;;;;16.40;59.51;94677.56;5133323;27;20031;-72
2022/09/15 05:09:38;;;;;;;5.10;2.80;;;;;;;16.52;59.07;94677.06;5131967;27;20503;-73
2022/09/15 05:12:04;;;;;;;4.82;3.20;;;;;;;16.72;59.14;94676.69;5114495;27;20412;-72
2022/09/15 05:14:30;;;;;;;3.70;2.60;;;;;;;17.10;57.21;94669.06;5133004;27;20036;-72
2022/09/15 05:16:56;;;;;;;8.35;2.50;;;;;;;17.57;55.26;94670.78;5131524;27;20076;-72
2022/09/15 05:19:21;;;;;;;5.43;2.50;;;;;;;18.07;55.08;94656.34;5114318;27;20019;-72
2022/09/15 05:21:47;;;;;;;8.48;2.60;;;;;;;18.61;52.68;94663.25;5114353;27;20031;-73
2022/09/15 05:24:12;;;;;;;5.40;2.58;;;;;;;19.00;52.25;94642.00;5133043;27;20031;-72
2022/09/15 05:26:38;;;;;;;5.53;2.80;;;;;;;19.28;51.30;94657.94;5116591;27;20034;-72
2022/09/15 05:29:03;;;;;;;4.15;2.30;;;;;;;19.15;51.29;94645.41;5133524;27;20034;-73
2022/09/15 05:31:30;;;;;;;7.65;2.45;;;;;;;19.01;52.03;94654.13;5134456;27;20028;-72
2022/09/15 05:33:55;;;;;;;5.65;2.50;;;;;;;18.88;53.33;94653.97;5133076;27;20088;-72
2022/09/15 05:36:24;;;;;;;5.70;2.50;;;;;;;18.83;53.63;94651.84;5116152;27;20023;-71
2022/09/15 05:38:50;;;;;;;3.65;2.53;;;;;;;18.77;54.07;94636.00;5116219;27;20039;-72
2022/09/15 05:41:16;;;;;;;6.85;2.50;;;;;;;18.82;52.02;94638.91;5116179;27;20080;-71
2022/09/15 05:43:42;;;;;;;4.20;2.60;;;;;;;18.91;52.27;94645.69;5116063;27;20550;-72
2022/09/15 05:46:08;;;;;;;3.03;2.35;;;;;;;18.90;52.43;94630.91;5132121;27;20035;-71
2022/09/15 05:48:34;;;;;;;5.57;2.75;;;;;;;18.95;52.51;94633.81;5131585;27;20039;-72
2022/09/15 05:50:59;;;;;;;3.58;2.40;;;;;;;19.12;51.96;94622.09;5133134;27;20468;-72
2022/09/15 05:53:25;;;;;;;6.68;2.85;;;;;;;19.19;53.44;94620.34;5115752;27;20028;-72
2022/09/15 05:55:54;;;;;;;5.75;2.58;;;;;;;19.25;50.41;94608.28;5115931;27;20400;-72
2022/09/15 05:58:20;;;;;;;5.32;2.35;;;;;;;19.50;49.09;94619.28;5132982;27;20058;-72
2022/09/15 06:00:45;;;;;;;5.72;2.30;;;;;;;19.68;49.86;94613.59;5132895;27;20031;-72
2022/09/15 06:03:12;;;;;;;4.32;2.40;;;;;;;19.83;51.35;94610.91;5115384;27;20139;-72
2022/09/15 06:05:38;;;;;;;19.63;8.10;;;;;;;19.89;50.56;94614.59;5115707;27;20491;-72
2022/09/15 06:08:03;;;;;;;19.58;7.43;;;;;;;19.92;51.30;94615.06;5132674;27;20032;-72
2022/09/15 06:10:29;;;;;;;12.18;5.88;;;;;;;20.00;52.27;94608.81;5127553;27;20038;-72
2022/09/15 06:12:54;;;;;;;12.07;5.90;;;;;;;20.14;52.44;94613.19;5111622;28;20035;-72
2022/09/15 06:15:20;;;;;;;9.32;5.28;;;;;;;20.27;52.89;94620.41;5122927;27;20466;-72
2022/09/15 06:17:46;;;;;;;8.40;3.22;;;;;;;20.35;52.88;94614.19;5135886;27;20046;-72
2022/09/15 06:20:11;;;;;;;6.93;3.45;;;;;;;20.50;52.44;94613.09;5153104;27;20034;-72
2022/09/15 06:22:37;;;;;;;14.13;5.55;;;;;;;20.61;50.82;94613.56;5153109;27;20034;-72
2022/09/15 06:25:04;;;;;;;11.82;4.30;;;;;;;20.74;51.06;94632.94;5139974;27;20035;-72
2022/09/15 06:27:29;;;;;;;13.38;4.25;;;;;;;20.87;51.04;94640.13;5132500;27;20035;-72
2022/09/15 06:29:55;;;;;;;10.25;4.50;;;;;;;21.04;50.67;94634.53;5133450;27;20477;-72
2022/09/15 06:32:20;;;;;;;12.18;3.90;;;;;;;21.23;47.61;94627.69;5132119;27;20482;-72
2022/09/15 06:34:46;;;;;;;17.20;4.15;;;;;;;21.26;47.91;94617.56;5114882;27;20023;-72
2022/09/15 06:37:11;;;;;;;9.02;3.28;;;;;;;21.27;47.33;94611.25;5133741;27;20560;-72
2022/09/15 06:39:37;;;;;;;8.73;2.97;;;;;;;21.41;47.25;94609.50;5133612;27;20031;-72
2022/09/15 06:42:02;;;;;;;8.82;3.10;;;;;;;21.49;46.45;94605.88;5132229;27;20038;-72
2022/09/15 06:44:28;;;;;;;7.90;3.10;;;;;;;21.74;45.96;94620.16;5133189;27;20031;-72
2022/09/15 06:46:53;;;;;;;5.07;2.80;;;;;;;21.77;44.48;94601.25;5131754;27;20412;-72
2022/09/15 06:49:20;;;;;;;10.45;3.00;;;;;;;21.92;43.47;94605.53;5112786;27;20031;-72
2022/09/15 06:51:46;;;;;;;4.70;2.80;;;;;;;22.11;43.48;94612.66;5152379;27;20026;-72
2022/09/15 06:54:13;;;;;;;7.13;2.65;;;;;;;22.20;41.03;94603.53;5107600;27;20065;-72
2022/09/15 06:56:38;;;;;;;8.35;2.90;;;;;;;22.40;42.12;94618.59;5131699;27;20110;-72
2022/09/15 06:59:04;;;;;;;4.65;2.72;;;;;;;22.57;42.53;94622.47;5121698;27;20601;-72
2022/09/15 07:01:30;;;;;;;6.15;2.95;;;;;;;22.67;41.44;94612.25;5084063;27;20494;-72
2022/09/15 07:03:57;;;;;;;6.82;2.92;;;;;;;22.73;41.41;94629.97;5087770;28;20474;-72
2022/09/15 07:06:22;;;;;;;7.97;2.78;;;;;;;22.88;41.31;94627.09;5108427;27;20114;-72
2022/09/15 07:08:48;;;;;;;5.30;3.03;;;;;;;22.99;40.88;94630.97;5107411;28;20111;-73
2022/09/15 07:11:14;;;;;;;6.75;2.75;;;;;;;23.09;40.97;94644.56;5111119;28;20219;-72
2022/09/15 07:13:39;;;;;;;5.57;2.70;;;;;;;23.23;39.85;94644.53;5093736;28;20130;-72
2022/09/15 07:16:06;;;;;;;6.22;2.80;;;;;;;23.31;38.46;94647.75;5100219;27;20046;-72
2022/09/15 07:18:32;;;;;;;13.13;3.03;;;;;;;23.08;40.01;94647.44;5092836;28;20054;-72
2022/09/15 07:21:08;;;;;;;8.32;3.10;;;;;;;23.16;39.37;94658.63;5112100;27;20027;-72
2022/09/15 07:23:33;;;;;;;11.40;3.00;;;;;;;23.22;39.76;94656.16;5101013;27;20098;-72
2022/09/15 07:26:16;;;;;;;10.05;3.53;;;;;;;23.38;39.72;94671.59;5127262;27;20043;-72
2022/09/15 07:28:44;;;;;;;8.80;3.30;;;;;;;23.45;39.29;94663.59;5111426;28;20098;-72
2022/09/15 07:31:12;;;;;;;8.65;3.50;;;;;;;23.55;38.92;94677.25;5110793;28;20099;-72
2022/09/15 07:33:38;;;;;;;11.23;3.20;;;;;;;23.59;39.35;94683.72;5104823;28;20032;-72
2022/09/15 07:36:04;;;;;;;11.85;3.15;;;;;;;23.66;38.82;94679.22;5110601;28;20417;-72
2022/09/15 07:38:30;;;;;;;8.63;3.08;;;;;;;23.77;37.96;94683.91;5111595;28;20035;-72
2022/09/15 07:41:08;;;;;;;11.57;3.08;;;;;;;23.82;37.81;94699.16;5093511;28;20044;-72
2022/09/15 07:43:34;;;;;;;9.95;3.30;;;;;;;23.95;38.01;94719.50;5111415;27;20028;-72
2022/09/15 07:46:01;;;;;;;7.90;3.30;;;;;;;24.11;36.18;94704.94;5093550;28;20036;-72
2022/09/15 07:48:26;;;;;;;6.80;2.95;;;;;;;24.06;36.64;94701.06;5111508;28;20102;-72
2022/09/15 07:50:52;;;;;;;6.28;3.00;;;;;;;24.08;36.99;94704.31;5093443;28;20401;-72
2022/09/15 07:53:17;;;;;;;6.75;3.00;;;;;;;24.19;36.15;94692.22;5093112;28;20108;-72
2022/09/15 07:55:43;;;;;;;6.93;2.92;;;;;;;24.17;35.34;94683.66;5093345;28;20039;-72
2022/09/15 07:58:08;;;;;;;7.25;3.10;;;;;;;24.12;35.45;94672.88;5111316;28;20104;-72
2022/09/15 08:00:35;;;;;;;8.43;2.90;;;;;;;24.12;36.13;94675.53;5110178;28;20044;-72
2022/09/15 08:03:00;;;;;;;10.70;3.47;;;;;;;24.19;35.99;94671.00;5110111;28;20492;-72
2022/09/15 08:05:27;;;;;;;9.50;2.67;;;;;;;24.20;37.00;94658.53;5110082;28;20042;-72
2022/09/15 08:07:55;;;;;;;10.52;3.13;;;;;;;24.22;36.55;94648.53;5093110;28;20024;-72
2022/09/15 08:10:24;;;;;;;7.22;2.78;;;;;;;24.38;36.54;94666.56;5110131;28;20134;-72
2022/09/15 08:12:50;;;;;;;6.68;3.30;;;;;;;24.49;36.55;94667.75;5111362;28;20026;-72
2022/09/15 08:15:16;;;;;;;9.55;3.30;;;;;;;24.55;36.30;94664.22;5093074;28;20100;-72
2022/09/15 08:17:42;;;;;;;7.32;3.10;;;;;;;24.63;36.34;94677.22;5093013;28;20047;-72
2022/09/15 08:20:07;;;;;;;8.98;2.85;;;;;;;24.66;36.08;94666.16;5092917;28;20060;-72
2022/09/15 08:22:33;;;;;;;9.57;2.95;;;;;;;24.70;36.35;94661.22;5092929;28;20039;-72
2022/09/15 08:24:58;;;;;;;10.35;4.00;;;;;;;24.81;36.22;94663.16;5109785;28;20036;-72
2022/09/15 08:27:24;;;;;;;8.07;3.47;;;;;;;24.91;36.16;94660.84;5109858;28;20051;-72
2022/09/15 08:29:49;;;;;;;7.68;2.90;;;;;;;24.93;36.17;94656.13;5092873;28;20027;-72
2022/09/15 08:32:15;;;;;;;8.75;3.10;;;;;;;25.01;35.54;94651.53;5111104;28;20327;-72
2022/09/15 08:34:40;;;;;;;7.65;3.30;;;;;;;25.03;35.61;94637.00;5092762;28;20416;-72
2022/09/15 08:37:06;;;;;;;14.10;3.00;;;;;;;25.10;35.59;94639.56;5109933;28;20035;-72
2022/09/15 08:39:31;;;;;;;8.77;2.50;;;;;;;25.16;35.45;94628.13;5109834;28;20031;-72
2022/09/15 08:41:57;;;;;;;6.60;2.85;;;;;;;25.19;35.41;94622.34;5113532;28;20032;-72
2022/09/15 08:44:31;;;;;;;5.13;2.78;;;;;;;25.23;35.24;94626.19;5113749;28;20101;-72
2022/09/15 08:47:15;;;;;;;8.93;3.08;;;;;;;25.34;35.03;94625.44;5115431;28;20408;-72
2022/09/15 08:50:09;;;;;;;9.18;3.08;;;;;;;25.53;34.03;94628.88;5114981;28;20031;-72
2022/09/15 08:52:45;;;;;;;6.82;3.00;;;;;;;25.60;34.55;94623.47;5114862;28;20134;-72
2022/09/15 08:55:12;;;;;;;11.27;2.97;;;;;;;25.71;34.57;94617.38;5097774;28;20039;-73
2022/09/15 08:57:38;;;;;;;8.45;3.75;;;;;;;25.72;34.41;94607.56;5096719;28;20027;-72
2022/09/15 09:00:05;;;;;;;5.95;3.28;;;;;;;25.91;33.00;94608.34;5113578;28;20034;-72
2022/09/15 09:02:57;;;;;;;8.20;2.90;;;;;;;25.95;32.95;94615.66;5113378;28;20045;-72
2022/09/15 09:06:06;;;;;;;6.25;2.67;;;;;;;25.98;33.55;94615.19;5112987;28;20050;-72
2022/09/15 09:08:43;;;;;;;7.40;2.90;;;;;;;26.05;33.21;94609.78;5099953;27;20044;-72
2022/09/15 09:11:27;;;;;;;7.28;3.08;;;;;;;26.19;32.42;94603.22;5114682;28;20058;-72
2022/09/15 09:14:07;;;;;;;8.95;2.90;;;;;;;26.14;33.20;94595.09;5114469;28;20035;-72
2022/09/15 09:16:57;;;;;;;8.85;3.17;;;;;;;26.20;33.11;94599.50;5113171;28;20574;-72
2022/09/15 09:19:36;;;;;;;8.35;2.50;;;;;;;26.26;32.95;94590.59;5114380;28;20036;-72
2022/09/15 09:22:09;;;;;;;12.20;2.72;;;;;;;26.33;33.03;94593.16;5113417;28;20035;-72
2022/09/15 09:24:45;;;;;;;9.70;2.67;;;;;;;26.35;33.05;94592.94;5096158;28;20019;-72
2022/09/15 09:27:22;;;;;;;6.05;2.97;;;;;;;26.38;31.72;94579.16;5114657;28;20035;-72
2022/09/15 09:29:53;;;;;;;4.90;2.60;;;;;;;26.36;31.93;94570.59;5097160;28;20027;-72
2022/09/15 09:32:23;;;;;;;12.73;3.05;;;;;;;26.43;32.53;94576.59;5096446;28;20062;-72
2022/09/15 09:35:04;;;;;;;7.32;2.83;;;;;;;26.56;32.02;94581.75;5095821;28;20490;-72
2022/09/15 09:37:30;;;;;;;7.20;2.60;;;;;;;26.57;32.12;94570.03;5113922;28;20437;-72
2022/09/15 09:39:55;;;;;;;5.90;2.53;;;;;;;26.54;32.85;94559.03;5095780;28;20038;-72
2022/09/15 09:42:23;;;;;;;6.50;2.75;;;;;;;26.52;32.85;94565.44;5114019;28;20111;-72
2022/09/15 09:44:48;;;;;;;7.97;3.00;;;;;;;26.49;33.09;94559.69;5095831;28;20028;-72
2022/09/15 09:47:14;;;;;;;6.13;2.60;;;;;;;26.70;32.59;94553.81;5095489;28;20031;-72
2022/09/15 09:49:45;;;;;;;6.30;2.80;;;;;;;26.76;32.85;94551.28;5114023;28;20027;-72
2022/09/15 09:52:11;;;;;;;7.55;2.53;;;;;;;26.82;32.01;94545.00;5078190;28;20059;-72
2022/09/15 09:54:37;;;;;;;6.68;3.20;;;;;;;26.89;32.37;94545.69;5095476;28;20490;-72
2022/09/15 09:57:26;;;;;;;6.47;2.90;;;;;;;26.95;32.43;94553.56;5112569;28;20024;-72
2022/09/15 09:59:52;;;;;;;9.27;2.78;;;;;;;27.01;32.61;94548.34;5112360;28;20032;-72
2022/09/15 10:02:25;;;;;;;9.07;3.03;;;;;;;27.17;31.19;94536.97;5112220;28;20047;-72
2022/09/15 10:05:04;;;;;;;8.10;2.90;;;;;;;27.27;31.68;94555.00;5078789;28;20607;-72
2022/09/15 10:07:30;;;;;;;9.85;3.10;;;;;;;27.33;31.36;94551.38;5113449;28;20027;-72
2022/09/15 10:09:57;;;;;;;10.38;2.72;;;;;;;27.40;31.75;94547.53;5095205;28;20023;-72
2022/09/15 10:12:33;;;;;;;5.97;2.85;;;;;;;27.39;31.32;94531.78;5095194;28;20502;-72
2022/09/15 10:15:03;;;;;;;10.55;2.63;;;;;;;27.50;31.60;94544.25;5096383;28;20035;-72
2022/09/15 10:17:35;;;;;;;;;;;;;;;27.52;31.32;94549.34;5095826;28;20517;-72
2022/09/15 10:20:00;;;;;;;13.95;2.67;;;;;;;27.60;31.04;94541.75;5113098;28;20396;-72
2022/09/15 10:22:36;;;;;;;7.10;2.75;;;;;;;27.72;31.50;94538.22;5077988;28;20027;-72
2022/09/15 10:25:25;;;;;;;7.80;2.58;;;;;;;27.73;31.36;94539.84;5095117;28;20024;-72
2022/09/15 10:28:13;;;;;;;6.30;2.58;;;;;;;27.72;30.84;94551.56;5111944;28;20032;-72
2022/09/15 10:30:55;;;;;;;6.32;2.45;;;;;;;27.80;30.76;94540.53;5112397;28;20040;-72
2022/09/15 10:33:25;;;;;;;6.22;2.50;;;;;;;27.87;30.37;94535.84;5097033;28;20061;-72
2022/09/15 10:35:51;;;;;;;4.93;2.38;;;;;;;27.86;30.78;94539.59;5094958;28;20032;-72
2022/09/15 10:38:20;;;;;;;4.53;2.20;;;;;;;28.02;30.37;94532.63;5077698;28;20515;-72
2022/09/15 10:41:02;;;;;;;6.75;2.38;;;;;;;28.10;29.49;94516.22;5111664;28;20031;-72
2022/09/15 10:43:39;;;;;;;4.72;2.30;;;;;;;28.37;28.74;94519.03;5111729;28;20045;-72
2022/09/15 10:46:27;;;;;;;10.75;2.63;;;;;;;28.39;30.41;94524.94;5112928;28;20067;-72
2022/09/15 10:49:29;;;;;;;8.60;2.72;;;;;;;28.46;29.87;94516.78;5112643;28;20043;-73
2022/09/15 10:52:41;;;;;;;6.10;2.60;;;;;;;28.50;30.23;94512.53;5111502;28;20039;-72
2022/09/15 10:55:12;;;;;;;7.70;2.55;;;;;;;28.65;30.43;94509.28;5103729;28;20043;-72
2022/09/15 10:58:01;;;;;;;6.97;2.92;;;;;;;28.80;29.16;94504.13;5112398;28;20035;-73
2022/09/15 11:00:30;;;;;;;8.82;2.88;;;;;;;28.92;29.10;94512.84;5111221;28;20100;-72
2022/09/15 11:03:17;;;;;;;4.45;2.22;;;;;;;28.94;28.95;94508.06;5093826;28;20108;-72
2022/09/15 11:05:45;;;;;;;8.95;2.60;;;;;;;29.02;29.20;94509.47;5111266;28;20582;-72
2022/09/15 11:08:36;;;;;;;8.13;2.42;;;;;;;28.99;28.31;94493.16;5110889;28;20020;-72
2022/09/15 11:11:14;;;;;;;8.32;2.53;;;;;;;29.05;28.85;94500.19;5111044;28;20040;-72
2022/09/15 11:13:46;;;;;;;8.25;2.72;;;;;;;29.06;29.10;94493.78;5094351;28;20469;-72
2022/09/15 11:16:37;;;;;;;9.90;2.85;;;;;;;29.23;27.88;94489.19;5111116;28;20034;-72
2022/09/15 11:19:08;;;;;;;13.02;2.50;;;;;;;29.26;28.14;94480.66;5111930;28;20121;-72
2022/09/15 11:21:39;;;;;;;6.97;2.33;;;;;;;29.19;28.64;94482.69;5111906;28;20039;-72
2022/09/15 11:24:28;;;;;;;7.38;2.65;;;;;;;29.26;28.61;94488.66;5077316;28;20031;-72
2022/09/15 11:27:02;;;;;;;7.95;2.60;;;;;;;29.31;27.87;94471.84;5112352;28;20032;-72
2022/09/15 11:29:31;;;;;;;11.25;2.50;;;;;;;29.26;28.33;94477.19;5094365;28;20039;-72
2022/09/15 11:32:07;;;;;;;7.90;2.57;;;;;;;29.21;28.55;94469.91;5110518;28;20104;-72
2022/09/15 11:34:42;;;;;;;8.30;2.30;;;;;;;29.23;28.78;94473.13;5110535;28;20066;-72
2022/09/15 11:37:15;;;;;;;7.15;2.50;;;;;;;29.24;28.55;94473.94;5110673;28;20216;-72
2022/09/15 11:39:48;;;;;;;8.63;2.80;;;;;;;29.22;27.89;94474.19;5093476;28;20115;-72
2022/09/15 11:42:24;;;;;;;8.68;2.45;;;;;;;29.20;28.03;94457.59;5093967;28;20126;-72
2022/09/15 11:44:49;;;;;;;5.72;2.65;;;;;;;29.29;27.27;94456.06;5094324;28;20036;-73
2022/09/15 11:47:37;;;;;;;12.40;2.53;;;;;;;29.30;27.89;94468.38;5110299;28;20024;-72
2022/09/15 11:50:19;;;;;;;9.45;2.67;;;;;;;29.29;28.14;94466.78;5093644;28;20076;-72